createdAt,value
2018-11-07T00:06:29.464Z,7.41
2018-11-07T00:21:34.059Z,7.18
2018-11-07T00:36:38.319Z,6.88
2018-11-07T00:51:42.622Z,6.58
2018-11-07T01:06:46.813Z,6.37
2018-11-07T01:21:51.150Z,6.22
2018-11-07T01:36:55.438Z,6.16
2018-11-07T01:51:59.611Z,6.32
2018-11-07T02:07:03.883Z,6.22
2018-11-07T02:22:08.016Z,6.18
2018-11-07T02:37:13.378Z,6.09
2018-11-07T02:52:17.523Z,6.22
2018-11-07T03:07:21.848Z,5.92
2018-11-07T03:22:26.155Z,5.86
2018-11-07T03:37:30.316Z,5.87
2018-11-07T03:52:34.403Z,5.68
2018-11-07T04:07:38.668Z,5.71
2018-11-07T04:22:42.817Z,5.54
2018-11-07T04:37:46.896Z,5.76
2018-11-07T04:52:51.007Z,5.63
2018-11-07T05:07:55.154Z,5.54
2018-11-07T05:22:59.425Z,5.79
2018-11-07T05:38:03.693Z,5.75
2018-11-07T05:53:07.888Z,6.80
2018-11-07T06:08:12.006Z,9.87
2018-11-07T06:23:16.327Z,14.19
2018-11-07T06:38:20.624Z,17.07
2018-11-07T06:53:24.864Z,18.70
2018-11-07T07:08:29.037Z,19.50
2018-11-07T07:23:33.258Z,20.27
2018-11-07T07:38:37.436Z,21.06
2018-11-07T07:53:41.627Z,21.01
2018-11-07T08:08:45.777Z,20.14
2018-11-07T08:23:49.911Z,17.46
2018-11-07T08:38:54.236Z,15.47
2018-11-07T08:53:58.428Z,14.82
2018-11-07T09:09:02.591Z,14.16
2018-11-07T09:24:07.045Z,14.62
2018-11-07T09:39:11.652Z,14.16
2018-11-07T09:54:16.811Z,13.75
2018-11-07T10:09:21.360Z,13.90
2018-11-07T10:24:25.632Z,14.29
2018-11-07T10:39:29.856Z,15.03
2018-11-07T10:54:34.063Z,16.85
2018-11-07T11:09:38.118Z,16.58
2018-11-07T11:24:42.198Z,17.44
2018-11-07T11:39:46.302Z,17.55
2018-11-07T11:54:50.502Z,16.28
2018-11-07T12:09:54.662Z,15.93
2018-11-07T12:24:58.785Z,15.91
2018-11-07T12:40:02.902Z,15.30
2018-11-07T12:55:08.552Z,15.48
2018-11-07T13:10:14.341Z,15.41
2018-11-07T13:25:18.814Z,14.86
2018-11-07T13:40:24.166Z,14.03
2018-11-07T13:55:28.336Z,13.27
2018-11-07T14:10:32.500Z,12.84
2018-11-07T14:25:36.740Z,12.46
2018-11-07T14:40:40.901Z,12.05
2018-11-07T14:55:45.209Z,11.74
2018-11-07T15:10:49.395Z,11.31
2018-11-07T15:25:53.719Z,10.72
2018-11-07T15:40:57.929Z,10.17
2018-11-07T15:56:02.207Z,10.02
2018-11-07T16:11:06.605Z,10.04
2018-11-07T16:26:10.960Z,10.10
2018-11-07T16:41:15.322Z,10.22
2018-11-07T16:56:19.415Z,9.75
2018-11-07T17:11:24.046Z,9.44
2018-11-07T17:26:28.355Z,9.22
2018-11-07T17:41:32.576Z,9.26
2018-11-07T17:56:36.948Z,9.33
2018-11-07T18:11:41.272Z,9.27
2018-11-07T18:26:45.571Z,8.90
2018-11-07T18:41:49.971Z,8.68
2018-11-07T18:56:54.412Z,8.25
2018-11-07T19:11:58.782Z,7.45
2018-11-07T19:27:02.999Z,6.76
2018-11-07T19:42:07.259Z,6.94
2018-11-07T19:57:11.421Z,6.74
2018-11-07T20:12:15.785Z,6.72
2018-11-07T20:27:20.049Z,6.23
2018-11-07T20:42:24.121Z,5.96
2018-11-07T20:57:28.632Z,5.96
2018-11-07T21:12:32.834Z,5.79
2018-11-07T21:27:38.830Z,5.56
2018-11-07T21:42:42.937Z,5.43
2018-11-07T21:57:47.064Z,5.29
2018-11-07T22:12:51.288Z,4.99
2018-11-07T22:27:55.470Z,4.67
2018-11-07T22:42:59.671Z,4.64
2018-11-07T22:58:03.856Z,4.58
2018-11-07T23:13:08.022Z,4.27
2018-11-07T23:28:12.284Z,4.34
2018-11-07T23:43:16.477Z,4.43
2018-11-07T23:58:20.662Z,4.67
